createdAt,value
2019-04-03T00:00:04.406Z,15.90
2019-04-03T00:02:32.728Z,15.60
2019-04-03T00:05:04.413Z,15.40
2019-04-03T00:07:35.163Z,15.03
2019-04-03T00:10:06.198Z,16.37
2019-04-03T00:12:34.602Z,15.87
2019-04-03T00:15:03.147Z,15.53
2019-04-03T00:17:31.545Z,15.90
2019-04-03T00:19:59.972Z,14.47
2019-04-03T00:22:28.415Z,15.83
2019-04-03T00:24:56.835Z,15.90
2019-04-03T00:27:25.277Z,15.80
2019-04-03T00:29:53.700Z,14.60
2019-04-03T00:32:23.373Z,16.00
2019-04-03T00:34:53.476Z,15.20
2019-04-03T00:37:23.265Z,16.13
2019-04-03T00:39:53.870Z,14.30
2019-04-03T00:42:24.154Z,14.67
2019-04-03T00:44:52.722Z,16.07
2019-04-03T00:47:25.097Z,15.67
2019-04-03T00:49:52.919Z,14.50
2019-04-03T00:52:21.409Z,15.37
2019-04-03T00:54:49.854Z,15.30
2019-04-03T00:57:18.413Z,16.00
2019-04-03T00:59:46.909Z,15.10
2019-04-03T01:02:16.518Z,15.53
2019-04-03T01:04:45.326Z,15.97
2019-04-03T01:07:13.745Z,15.17
2019-04-03T01:09:42.202Z,15.63
2019-04-03T01:12:10.611Z,14.53
2019-04-03T01:14:39.050Z,16.50
2019-04-03T01:17:07.463Z,14.90
2019-04-03T01:19:36.737Z,14.70
2019-04-03T01:22:07.410Z,13.23
2019-04-03T01:24:38.052Z,15.33
2019-04-03T01:27:05.894Z,15.40
2019-04-03T01:29:34.323Z,14.20
2019-04-03T01:32:02.741Z,14.80
2019-04-03T01:34:31.174Z,15.10
2019-04-03T01:36:59.645Z,13.97
2019-04-03T01:39:28.094Z,15.73
2019-04-03T01:41:56.515Z,14.50
2019-04-03T01:44:25.315Z,15.00
2019-04-03T01:46:53.860Z,15.53
2019-04-03T01:49:22.371Z,15.20
2019-04-03T01:51:50.797Z,14.70
2019-04-03T01:54:19.441Z,15.10
2019-04-03T01:56:47.999Z,15.10
2019-04-03T01:59:16.440Z,14.70
2019-04-03T02:01:44.983Z,15.13
2019-04-03T02:04:13.593Z,14.40
2019-04-03T02:06:43.658Z,14.90
2019-04-03T02:09:13.945Z,14.60
2019-04-03T02:11:42.489Z,15.63
2019-04-03T02:14:10.908Z,15.00
2019-04-03T02:16:39.473Z,15.20
2019-04-03T02:19:07.955Z,15.50
2019-04-03T02:21:36.400Z,15.70
2019-04-03T02:24:04.885Z,15.03
2019-04-03T02:26:33.331Z,15.50
2019-04-03T02:29:04.315Z,15.50
2019-04-03T02:31:31.918Z,15.40
2019-04-03T02:34:02.197Z,15.27
2019-04-03T02:36:30.516Z,16.10
2019-04-03T02:38:58.932Z,15.30
2019-04-03T02:41:27.382Z,15.93
2019-04-03T02:43:55.873Z,15.90
2019-04-03T02:46:26.953Z,16.80
2019-04-03T02:48:54.651Z,15.83
2019-04-03T02:51:23.163Z,15.27
2019-04-03T02:53:51.585Z,15.83
2019-04-03T02:56:20.028Z,16.07
2019-04-03T02:58:48.442Z,15.77
2019-04-03T03:01:16.950Z,15.43
2019-04-03T03:03:48.548Z,15.70
2019-04-03T03:06:15.625Z,15.33
2019-04-03T03:08:44.418Z,16.90
2019-04-03T03:11:13.453Z,15.57
2019-04-03T03:13:42.241Z,16.10
2019-04-03T03:16:10.781Z,15.87
2019-04-03T03:18:39.229Z,16.37
2019-04-03T03:21:12.055Z,16.33
2019-04-03T03:23:37.945Z,15.23
2019-04-03T03:26:07.034Z,15.90
2019-04-03T03:28:35.479Z,16.47
2019-04-03T03:31:06.894Z,16.40
2019-04-03T03:33:38.963Z,15.40
2019-04-03T03:36:06.049Z,16.20
2019-04-03T03:38:38.211Z,15.40
2019-04-03T03:41:05.572Z,15.33
2019-04-03T03:43:38.316Z,15.43
2019-04-03T03:46:04.834Z,15.27
2019-04-03T03:48:34.319Z,15.73
2019-04-03T03:51:04.610Z,16.40
2019-04-03T03:53:33.659Z,16.30
2019-04-03T03:56:02.313Z,15.27
2019-04-03T03:58:31.137Z,16.77
2019-04-03T04:01:00.927Z,16.97
2019-04-03T04:03:30.426Z,18.47
2019-04-03T04:05:59.038Z,18.10
2019-04-03T04:08:28.837Z,18.10
2019-04-03T04:10:59.385Z,18.37
2019-04-03T04:13:27.685Z,18.20
2019-04-03T04:15:56.738Z,16.87
2019-04-03T04:18:25.187Z,16.53
2019-04-03T04:20:53.787Z,15.07
2019-04-03T04:23:24.761Z,17.10
2019-04-03T04:25:53.815Z,16.47
2019-04-03T04:28:22.809Z,16.40
2019-04-03T04:30:51.444Z,16.20
2019-04-03T04:33:20.130Z,16.53
2019-04-03T04:35:51.351Z,16.57
2019-04-03T04:38:18.713Z,16.30
2019-04-03T04:40:47.162Z,16.77
2019-04-03T04:43:15.569Z,16.03
2019-04-03T04:45:44.285Z,16.13
2019-04-03T04:48:15.619Z,17.30
2019-04-03T04:50:43.016Z,18.03
2019-04-03T04:53:11.410Z,17.90
2019-04-03T04:55:39.858Z,17.90
2019-04-03T04:58:11.245Z,17.03
2019-04-03T05:00:38.467Z,18.80
2019-04-03T05:03:06.896Z,16.20
2019-04-03T05:05:35.344Z,16.67
2019-04-03T05:08:03.761Z,17.30
2019-04-03T05:10:32.279Z,19.00
2019-04-03T05:13:00.699Z,16.80
2019-04-03T05:15:29.347Z,16.50
2019-04-03T05:17:58.337Z,15.77
2019-04-03T05:20:27.247Z,16.37
2019-04-03T05:22:55.846Z,15.93
2019-04-03T05:25:24.251Z,15.50
2019-04-03T05:27:52.666Z,16.50
2019-04-03T05:30:31.095Z,15.60
2019-04-03T05:32:59.979Z,15.50
2019-04-03T05:35:28.398Z,16.80
2019-04-03T05:37:56.853Z,16.60
2019-04-03T05:40:26.158Z,16.73
2019-04-03T05:42:55.053Z,15.90
2019-04-03T05:45:23.502Z,16.17
2019-04-03T05:47:52.176Z,18.00
2019-04-03T05:50:20.614Z,16.57
2019-04-03T05:52:49.163Z,17.20
2019-04-03T05:55:17.839Z,17.07
2019-04-03T05:57:46.315Z,17.27
2019-04-03T06:00:14.853Z,17.47
2019-04-03T06:02:43.296Z,16.30
2019-04-03T06:05:12.894Z,18.10
2019-04-03T06:07:41.709Z,18.30
2019-04-03T06:10:10.500Z,17.17
2019-04-03T06:12:39.023Z,17.73
2019-04-03T06:15:09.836Z,17.40
2019-04-03T06:17:38.135Z,17.70
2019-04-03T06:20:10.381Z,17.80
2019-04-03T06:22:37.681Z,16.70
2019-04-03T06:25:07.222Z,16.57
2019-04-03T06:27:35.667Z,16.40
2019-04-03T06:30:06.279Z,16.87
2019-04-03T06:32:34.739Z,18.53
2019-04-03T06:35:03.224Z,17.23
2019-04-03T06:37:31.633Z,16.40
2019-04-03T06:40:02.313Z,16.77
2019-04-03T06:42:30.212Z,17.80
2019-04-03T06:44:58.658Z,16.93
2019-04-03T06:47:27.080Z,17.40
2019-04-03T06:49:55.528Z,16.93
2019-04-03T06:52:24.062Z,16.97
2019-04-03T06:54:52.646Z,16.30
2019-04-03T06:57:21.349Z,16.57
2019-04-03T06:59:50.052Z,17.70
2019-04-03T07:02:18.562Z,17.30
2019-04-03T07:04:47.011Z,17.80
2019-04-03T07:07:16.010Z,17.50
2019-04-03T07:09:45.605Z,16.43
2019-04-03T07:12:15.867Z,16.93
2019-04-03T07:14:44.415Z,16.97
2019-04-03T07:17:12.833Z,17.30
2019-04-03T07:19:41.258Z,17.53
2019-04-03T07:22:09.745Z,16.67
2019-04-03T07:24:38.214Z,17.93
2019-04-03T07:27:07.035Z,16.37
2019-04-03T07:29:35.558Z,16.80
2019-04-03T07:32:04.208Z,17.20
2019-04-03T07:34:34.264Z,17.70
2019-04-03T07:37:03.123Z,18.33
2019-04-03T07:39:31.604Z,17.67
2019-04-03T07:42:00.020Z,17.70
2019-04-03T07:44:29.903Z,18.17
2019-04-03T07:46:58.621Z,17.63
2019-04-03T07:49:27.068Z,18.40
2019-04-03T07:51:55.485Z,17.80
2019-04-03T07:54:26.590Z,17.23
2019-04-03T07:56:56.800Z,18.37
2019-04-03T07:59:24.262Z,18.50
2019-04-03T08:01:52.684Z,18.23
2019-04-03T08:04:21.949Z,19.60
2019-04-03T08:06:51.287Z,19.67
2019-04-03T08:09:19.750Z,18.53
2019-04-03T08:11:48.168Z,18.47
2019-04-03T08:14:19.197Z,19.13
2019-04-03T08:16:48.171Z,19.70
2019-04-03T08:19:16.918Z,20.00
2019-04-03T08:21:45.426Z,19.67
2019-04-03T08:24:13.990Z,19.27
2019-04-03T08:26:42.529Z,20.50
2019-04-03T08:29:11.047Z,19.93
2019-04-03T08:31:42.733Z,20.10
2019-04-03T08:34:17.114Z,19.30
2019-04-03T08:36:39.990Z,19.13
2019-04-03T08:39:08.728Z,19.87
2019-04-03T08:41:37.909Z,19.83
2019-04-03T08:44:08.331Z,17.80
2019-04-03T08:46:36.727Z,19.30
2019-04-03T08:49:05.230Z,19.17
2019-04-03T08:51:34.377Z,18.77
2019-04-03T08:54:03.458Z,19.23
2019-04-03T08:56:31.903Z,18.30
2019-04-03T08:59:00.331Z,17.80
2019-04-03T09:01:28.793Z,20.23
2019-04-03T09:03:57.202Z,18.60
2019-04-03T09:06:25.973Z,18.80
2019-04-03T09:08:57.194Z,19.57
2019-04-03T09:11:24.580Z,17.93
2019-04-03T09:13:54.865Z,20.43
2019-04-03T09:16:23.448Z,16.73
2019-04-03T09:18:51.839Z,17.90
2019-04-03T09:21:20.329Z,17.77
2019-04-03T09:23:49.089Z,17.90
2019-04-03T09:26:17.609Z,18.43
2019-04-03T09:28:46.051Z,18.50
2019-04-03T09:31:14.635Z,18.07
2019-04-03T09:33:43.088Z,19.00
2019-04-03T09:36:11.553Z,19.80
2019-04-03T09:38:41.763Z,17.60
2019-04-03T09:41:10.190Z,18.87
2019-04-03T09:43:39.675Z,17.80
2019-04-03T09:46:08.552Z,17.87
2019-04-03T09:48:37.612Z,18.40
2019-04-03T09:51:09.043Z,18.40
2019-04-03T09:53:36.644Z,16.87
2019-04-03T09:56:07.316Z,16.77
2019-04-03T09:58:36.673Z,17.00
2019-04-03T10:01:05.546Z,16.83
2019-04-03T10:03:33.994Z,16.00
2019-04-03T10:06:02.773Z,17.10
2019-04-03T10:08:31.746Z,17.00
2019-04-03T10:11:00.321Z,14.90
2019-04-03T10:13:29.120Z,16.50
2019-04-03T10:15:57.779Z,15.80
2019-04-03T10:18:26.228Z,16.20
2019-04-03T10:20:54.665Z,15.60
2019-04-03T10:23:23.405Z,14.27
2019-04-03T10:25:53.632Z,14.60
2019-04-03T10:28:22.238Z,14.17
2019-04-03T10:30:53.174Z,14.53
2019-04-03T10:33:21.169Z,15.13
2019-04-03T10:35:49.629Z,14.40
2019-04-03T10:38:18.993Z,14.87
2019-04-03T10:40:47.734Z,14.17
2019-04-03T10:43:16.518Z,13.70
2019-04-03T10:45:45.102Z,14.80
2019-04-03T10:48:13.553Z,13.27
2019-04-03T10:50:41.970Z,13.27
2019-04-03T10:53:10.421Z,14.13
2019-04-03T10:55:39.090Z,14.73
2019-04-03T10:58:08.518Z,14.17
2019-04-03T11:00:37.648Z,13.47
2019-04-03T11:03:06.256Z,15.10
2019-04-03T11:05:34.843Z,13.90
2019-04-03T11:08:03.657Z,13.10
2019-04-03T11:10:32.167Z,12.20
2019-04-03T11:13:00.902Z,13.70
2019-04-03T11:15:30.831Z,13.67
2019-04-03T11:17:59.500Z,14.70
2019-04-03T11:20:28.061Z,13.90
2019-04-03T11:23:05.989Z,15.00
2019-04-03T11:25:27.202Z,14.40
2019-04-03T11:27:56.224Z,13.40
2019-04-03T11:30:25.584Z,12.90
2019-04-03T11:32:54.077Z,13.13
2019-04-03T11:35:22.916Z,13.40
2019-04-03T11:37:51.746Z,12.90
2019-04-03T11:40:20.597Z,13.20
2019-04-03T11:42:49.006Z,13.10
2019-04-03T11:45:18.203Z,11.93
2019-04-03T11:47:46.921Z,12.87
2019-04-03T11:50:17.152Z,13.27
2019-04-03T11:52:45.569Z,12.90
2019-04-03T11:55:14.550Z,13.27
2019-04-03T11:57:43.111Z,13.00
2019-04-03T12:00:14.503Z,12.50
2019-04-03T12:02:44.475Z,13.10
2019-04-03T12:05:16.233Z,13.37
2019-04-03T12:07:44.473Z,13.70
2019-04-03T12:10:13.527Z,14.67
2019-04-03T12:12:42.854Z,14.10
2019-04-03T12:15:15.074Z,14.50
2019-04-03T12:17:42.276Z,14.70
2019-04-03T12:20:11.139Z,14.03
2019-04-03T12:22:39.625Z,14.87
2019-04-03T12:25:08.418Z,15.30
2019-04-03T12:27:36.863Z,14.60
2019-04-03T12:30:08.000Z,20.80
2019-04-03T12:32:42.673Z,15.30
2019-04-03T12:35:09.859Z,14.70
2019-04-03T12:37:37.603Z,16.23
2019-04-03T12:40:07.389Z,16.30
2019-04-03T12:42:35.866Z,16.53
2019-04-03T12:45:05.798Z,16.53
2019-04-03T12:47:34.730Z,14.53
2019-04-03T12:50:03.214Z,16.47
2019-04-03T12:52:31.661Z,15.50
2019-04-03T12:55:00.080Z,14.93
2019-04-03T12:57:28.533Z,15.30
2019-04-03T12:59:56.955Z,14.37
2019-04-03T13:02:25.825Z,14.93
2019-04-03T13:04:54.302Z,14.23
2019-04-03T13:07:23.084Z,14.30
2019-04-03T13:09:51.549Z,14.27
2019-04-03T13:12:22.068Z,13.70
2019-04-03T13:14:50.261Z,13.80
2019-04-03T13:17:19.145Z,14.97
2019-04-03T13:19:47.598Z,13.20
2019-04-03T13:22:18.020Z,13.73
2019-04-03T13:24:48.182Z,12.97
2019-04-03T13:27:16.776Z,12.67
2019-04-03T13:29:45.335Z,12.03
2019-04-03T13:32:16.799Z,11.90
2019-04-03T13:34:43.997Z,12.03
2019-04-03T13:37:12.420Z,11.73
2019-04-03T13:39:40.874Z,12.83
2019-04-03T13:42:09.453Z,11.60
2019-04-03T13:44:37.914Z,13.50
2019-04-03T13:47:08.591Z,13.50
2019-04-03T13:49:36.698Z,13.60
2019-04-03T13:52:08.589Z,11.70
2019-04-03T13:54:35.721Z,12.37
2019-04-03T13:57:04.260Z,11.20
2019-04-03T13:59:32.689Z,11.27
2019-04-03T14:02:01.112Z,11.40
2019-04-03T14:04:29.565Z,11.00
2019-04-03T14:06:58.434Z,11.77
2019-04-03T14:09:27.278Z,12.17
2019-04-03T14:11:55.843Z,12.37
2019-04-03T14:14:24.571Z,12.27
2019-04-03T14:16:52.946Z,12.40
2019-04-03T14:19:24.289Z,13.37
2019-04-03T14:21:51.547Z,12.17
2019-04-03T14:24:20.283Z,11.70
2019-04-03T14:26:48.722Z,11.37
2019-04-03T14:29:17.177Z,10.50
2019-04-03T14:31:47.961Z,10.70
2019-04-03T14:34:15.765Z,11.63
2019-04-03T14:36:44.191Z,10.47
2019-04-03T14:39:12.644Z,11.60
2019-04-03T14:41:41.146Z,11.90
2019-04-03T14:44:09.979Z,11.07
2019-04-03T14:46:38.486Z,11.43
2019-04-03T14:49:06.986Z,11.60
2019-04-03T14:51:35.418Z,11.23
2019-04-03T14:54:03.919Z,12.07
2019-04-03T14:56:33.429Z,12.20
2019-04-03T14:59:02.656Z,11.70
2019-04-03T15:01:31.097Z,11.80
2019-04-03T15:04:00.769Z,13.23
2019-04-03T15:06:30.048Z,12.30
2019-04-03T15:08:58.613Z,12.93
2019-04-03T15:11:27.052Z,12.60
2019-04-03T15:13:55.472Z,12.00
2019-04-03T15:16:24.279Z,11.20
2019-04-03T15:18:52.699Z,11.50
2019-04-03T15:21:23.800Z,10.83
2019-04-03T15:23:51.814Z,8.53
2019-04-03T15:26:22.221Z,10.00
2019-04-03T15:28:50.907Z,10.00
2019-04-03T15:31:19.338Z,9.30
2019-04-03T15:33:48.106Z,8.53
2019-04-03T15:36:17.012Z,9.10
2019-04-03T15:38:46.322Z,8.70
2019-04-03T15:41:14.988Z,8.73
2019-04-03T15:43:45.359Z,9.10
2019-04-03T15:46:14.005Z,9.60
2019-04-03T15:48:42.526Z,9.87
2019-04-03T15:51:10.986Z,10.50
2019-04-03T15:53:39.412Z,9.67
2019-04-03T15:56:07.854Z,10.97
2019-04-03T15:58:36.343Z,11.57
2019-04-03T16:01:08.331Z,10.70
2019-04-03T16:03:35.467Z,11.30
2019-04-03T16:06:04.737Z,11.90
2019-04-03T16:08:33.603Z,11.60
2019-04-03T16:11:02.033Z,11.80
2019-04-03T16:13:30.672Z,12.00
2019-04-03T16:16:00.825Z,12.30
2019-04-03T16:18:29.643Z,11.90
2019-04-03T16:20:58.250Z,12.30
2019-04-03T16:23:26.674Z,12.63
2019-04-03T16:25:55.575Z,12.33
2019-04-03T16:28:24.122Z,12.93
2019-04-03T16:30:53.971Z,12.70
2019-04-03T16:33:24.254Z,12.57
2019-04-03T16:35:52.856Z,12.80
2019-04-03T16:38:21.810Z,12.30
2019-04-03T16:40:50.301Z,12.83
2019-04-03T16:43:21.181Z,12.63
2019-04-03T16:45:48.888Z,14.10
2019-04-03T16:48:18.193Z,13.97
2019-04-03T16:50:47.459Z,13.87
2019-04-03T16:53:16.134Z,13.40
2019-04-03T16:55:46.683Z,13.57
2019-04-03T16:58:15.824Z,13.43
2019-04-03T17:00:44.317Z,13.80
2019-04-03T17:03:13.387Z,13.60
2019-04-03T17:05:43.737Z,13.47
2019-04-03T17:08:12.317Z,14.13
2019-04-03T17:10:41.156Z,14.10
2019-04-03T17:13:09.738Z,14.00
2019-04-03T17:15:38.173Z,13.97
2019-04-03T17:18:06.626Z,14.97
2019-04-03T17:20:35.574Z,14.73
2019-04-03T17:23:04.342Z,14.03
2019-04-03T17:25:44.882Z,14.53
2019-04-03T17:28:07.456Z,15.60
2019-04-03T17:30:33.129Z,15.60
2019-04-03T17:33:02.815Z,16.50
2019-04-03T17:35:31.817Z,16.83
2019-04-03T17:38:00.941Z,17.70
2019-04-03T17:40:29.861Z,17.47
2019-04-03T17:42:58.414Z,17.47
2019-04-03T17:45:26.856Z,17.47
2019-04-03T17:47:55.273Z,18.87
2019-04-03T17:50:23.719Z,19.97
2019-04-03T17:52:52.134Z,19.00
2019-04-03T17:55:20.580Z,21.80
2019-04-03T17:57:48.994Z,21.00
2019-04-03T18:00:20.987Z,22.00
2019-04-03T18:02:49.690Z,22.20
2019-04-03T18:05:18.216Z,22.00
2019-04-03T18:07:46.632Z,22.70
2019-04-03T18:10:15.323Z,22.20
2019-04-03T18:12:45.604Z,22.97
2019-04-03T18:15:14.527Z,24.47
2019-04-03T18:17:42.941Z,22.30
2019-04-03T18:20:13.316Z,23.03
2019-04-03T18:22:41.828Z,22.63
2019-04-03T18:25:10.344Z,21.57
2019-04-03T18:27:38.771Z,21.93
2019-04-03T18:30:11.083Z,23.57
2019-04-03T18:32:39.373Z,22.63
2019-04-03T18:35:08.827Z,22.80
2019-04-03T18:37:40.448Z,23.67
2019-04-03T18:40:09.314Z,23.77
2019-04-03T18:42:37.761Z,22.43
2019-04-03T18:45:06.821Z,24.10
2019-04-03T18:47:40.991Z,21.90
2019-04-03T18:50:06.145Z,23.77
2019-04-03T18:52:34.562Z,23.57
2019-04-03T18:55:03.114Z,25.83
2019-04-03T18:57:31.548Z,25.60
2019-04-03T19:00:00.681Z,24.63
2019-04-03T19:02:29.281Z,24.60
2019-04-03T19:05:02.143Z,24.00
2019-04-03T19:07:27.856Z,25.10
2019-04-03T19:10:06.339Z,26.87
2019-04-03T19:12:35.508Z,26.23
2019-04-03T19:14:56.583Z,26.40
2019-04-03T19:17:25.454Z,28.57
2019-04-03T19:20:04.048Z,28.10
2019-04-03T19:22:25.776Z,29.20
2019-04-03T19:24:54.822Z,27.63
2019-04-03T19:27:23.331Z,27.27
2019-04-03T19:29:51.743Z,27.43
2019-04-03T19:32:20.207Z,26.80
2019-04-03T19:34:51.954Z,27.30
2019-04-03T19:37:18.781Z,26.10
2019-04-03T19:39:47.180Z,27.23
2019-04-03T19:42:15.631Z,26.03
2019-04-03T19:44:44.044Z,26.77
2019-04-03T19:47:12.480Z,27.80
2019-04-03T19:49:40.924Z,29.20
2019-04-03T19:52:09.338Z,27.20
2019-04-03T19:54:37.778Z,28.50
2019-04-03T19:57:06.195Z,28.47
2019-04-03T19:59:34.789Z,28.37
2019-04-03T20:02:03.232Z,26.70
2019-04-03T20:04:31.670Z,28.67
2019-04-03T20:07:00.084Z,30.37
2019-04-03T20:09:31.924Z,28.40
2019-04-03T20:11:58.739Z,29.33
2019-04-03T20:14:27.183Z,30.17
2019-04-03T20:16:58.376Z,30.30
2019-04-03T20:19:26.715Z,29.70
2019-04-03T20:21:55.723Z,28.40
2019-04-03T20:24:25.280Z,28.90
2019-04-03T20:26:54.031Z,29.93
2019-04-03T20:29:22.480Z,29.73
2019-04-03T20:31:50.886Z,29.60
2019-04-03T20:34:19.325Z,28.70
2019-04-03T20:36:51.026Z,27.80
2019-04-03T20:39:17.913Z,27.87
2019-04-03T20:41:46.329Z,28.60
2019-04-03T20:44:16.625Z,30.33
2019-04-03T20:46:44.907Z,28.40
2019-04-03T20:49:13.345Z,29.30
2019-04-03T20:51:41.757Z,29.70
2019-04-03T20:54:11.714Z,29.47
2019-04-03T20:56:40.501Z,30.97
2019-04-03T20:59:11.192Z,29.63
2019-04-03T21:01:39.091Z,30.40
2019-04-03T21:04:07.523Z,31.50
2019-04-03T21:06:37.421Z,28.63
2019-04-03T21:09:07.256Z,29.50
2019-04-03T21:11:35.648Z,29.00
2019-04-03T21:14:05.623Z,31.13
2019-04-03T21:16:34.384Z,30.33
2019-04-03T21:19:02.940Z,31.70
2019-04-03T21:21:31.347Z,28.97
2019-04-03T21:23:59.830Z,28.73
2019-04-03T21:26:28.272Z,29.80
2019-04-03T21:28:56.683Z,30.20
2019-04-03T21:31:25.927Z,28.87
2019-04-03T21:33:55.399Z,28.00
2019-04-03T21:36:23.833Z,28.50
2019-04-03T21:38:52.251Z,28.87
2019-04-03T21:41:21.376Z,29.70
2019-04-03T21:43:49.882Z,30.00
2019-04-03T21:46:18.320Z,29.77
2019-04-03T21:48:46.737Z,30.93
2019-04-03T21:51:15.170Z,27.23
2019-04-03T21:53:43.582Z,29.97
2019-04-03T21:56:12.036Z,30.03
2019-04-03T21:58:40.468Z,30.70
2019-04-03T22:01:15.173Z,30.60
2019-04-03T22:03:43.717Z,29.33
2019-04-03T22:06:12.224Z,29.17
2019-04-03T22:08:40.634Z,29.63
2019-04-03T22:11:09.146Z,31.57
2019-04-03T22:13:38.481Z,33.73
2019-04-03T22:16:07.667Z,32.10
2019-04-03T22:18:36.158Z,32.63
2019-04-03T22:21:04.662Z,32.13
2019-04-03T22:23:35.681Z,31.20
2019-04-03T22:26:03.313Z,31.60
2019-04-03T22:28:31.731Z,30.60
2019-04-03T22:31:00.170Z,31.23
2019-04-03T22:33:28.580Z,30.50
2019-04-03T22:35:56.973Z,31.90
2019-04-03T22:38:25.405Z,30.03
2019-04-03T22:40:53.804Z,28.40
2019-04-03T22:43:22.238Z,28.60
2019-04-03T22:45:51.158Z,29.43
2019-04-03T22:48:19.555Z,27.17
2019-04-03T22:50:47.946Z,29.37
2019-04-03T22:53:16.374Z,27.23
2019-04-03T22:55:46.547Z,27.33
2019-04-03T22:58:15.006Z,27.10
2019-04-03T23:00:43.404Z,27.00
2019-04-03T23:03:13.371Z,25.77
2019-04-03T23:05:41.931Z,25.40
2019-04-03T23:08:10.437Z,25.20
2019-04-03T23:10:38.849Z,24.73
2019-04-03T23:13:07.363Z,24.70
2019-04-03T23:15:35.861Z,25.53
2019-04-03T23:18:04.541Z,24.30
2019-04-03T23:20:33.024Z,24.80
2019-04-03T23:23:01.545Z,24.17
2019-04-03T23:25:30.258Z,23.63
2019-04-03T23:27:58.775Z,23.23
2019-04-03T23:30:27.192Z,23.90
2019-04-03T23:32:55.653Z,22.60
2019-04-03T23:35:24.219Z,23.30
2019-04-03T23:37:53.864Z,23.40
2019-04-03T23:40:22.807Z,21.93
2019-04-03T23:42:51.302Z,22.10
2019-04-03T23:45:20.321Z,23.17
2019-04-03T23:47:48.768Z,22.80
2019-04-03T23:50:17.245Z,23.10
2019-04-03T23:52:45.701Z,21.17
2019-04-03T23:55:14.119Z,20.97
2019-04-03T23:57:42.535Z,20.53
